Time;durP1;ratioP1;P1;durP2;ratioP2;P2;SDS_P1;SDS_P2;PMS_P1;PMS_P2;Temp;Humidity;BMP_temperature;BMP_pressure;BME280_temperature;BME280_humidity;BME280_pressure;Samples;Min_cycle;Max_cycle;Signal;HPM_P1;HPM_P2
2021/11/21 00:00:24;;;;;;;10.82;2.17;;;;;;;-145.71;100.00;60690.53;4737907;30;20035;-93
2021/11/21 00:03:48;;;;;;;17.38;2.90;;;;;;;-145.71;100.00;60690.53;4755760;30;20055;-92
2021/11/21 00:07:12;;;;;;;16.20;2.58;;;;;;;-145.71;100.00;60690.53;4737655;30;20040;-92
2021/11/21 00:10:36;;;;;;;17.23;2.70;;;;;;;-145.71;100.00;60690.53;4735066;30;20505;-93
2021/11/21 00:14:02;;;;;;;14.07;2.17;;;;;;;-145.71;100.00;60690.53;4735200;30;20044;-92
2021/11/21 00:17:27;;;;;;;14.20;2.05;;;;;;;-145.71;100.00;60690.53;4749497;30;20474;-92
2021/11/21 00:20:51;;;;;;;26.83;2.90;;;;;;;-145.71;100.00;60690.53;4750573;30;20089;-92
2021/11/21 00:24:15;;;;;;;19.55;2.63;;;;;;;-145.71;100.00;60690.53;4735867;30;20152;-92
2021/11/21 00:27:39;;;;;;;16.45;3.53;;;;;;;-145.71;100.00;60690.53;4752283;30;20038;-92
2021/11/21 00:31:04;;;;;;;19.73;2.15;;;;;;;-145.71;100.00;60690.53;4751336;30;20417;-92
2021/11/21 00:34:28;;;;;;;15.50;2.53;;;;;;;-145.71;100.00;60690.53;4738486;30;20032;-92
2021/11/21 00:37:52;;;;;;;13.63;2.38;;;;;;;-145.71;100.00;60690.53;4736013;30;20036;-92
2021/11/21 00:41:16;;;;;;;21.20;2.97;;;;;;;-145.71;100.00;60690.53;4735692;30;20036;-93
2021/11/21 00:44:40;;;;;;;20.17;3.92;;;;;;;-145.71;100.00;60690.53;4752480;30;20119;-93
2021/11/21 00:48:04;;;;;;;16.50;2.55;;;;;;;-145.71;100.00;60690.53;4736716;30;20039;-93
2021/11/21 00:51:29;;;;;;;26.52;3.90;;;;;;;-145.71;100.00;60690.53;4751417;30;20036;-93
2021/11/21 00:54:57;;;;;;;27.45;3.08;;;;;;;-145.71;100.00;60690.53;4742657;30;20044;-93
2021/11/21 00:58:21;;;;;;;21.10;3.40;;;;;;;-145.71;100.00;60690.53;4756322;29;20024;-93
2021/11/21 01:01:47;;;;;;;19.27;3.42;;;;;;;-145.71;100.00;60690.53;4750973;30;20129;-93
2021/11/21 01:05:12;;;;;;;27.77;3.58;;;;;;;-145.71;100.00;60690.53;4750374;30;20044;-93
2021/11/21 01:08:36;;;;;;;14.77;3.15;;;;;;;-145.71;100.00;60690.53;4736097;30;20032;-93
2021/11/21 01:12:02;;;;;;;17.58;2.58;;;;;;;-145.71;100.00;60690.53;4736728;30;20115;-93
2021/11/21 01:15:27;;;;;;;21.65;2.72;;;;;;;-145.71;100.00;60690.53;4751011;30;20098;-92
2021/11/21 01:18:52;;;;;;;18.77;3.03;;;;;;;-145.71;100.00;60690.53;4751218;30;20084;-93
2021/11/21 01:22:17;;;;;;;23.40;2.95;;;;;;;-145.71;100.00;60690.53;4756100;30;20040;-93
2021/11/21 01:25:43;;;;;;;16.10;2.92;;;;;;;-145.71;100.00;60690.53;4745296;29;20020;-93
2021/11/21 01:29:07;;;;;;;28.15;3.42;;;;;;;-145.71;100.00;60690.53;4736307;30;20040;-93
2021/11/21 01:32:32;;;;;;;24.20;3.17;;;;;;;-145.71;100.00;60690.53;4753177;30;20086;-93
2021/11/21 01:35:56;;;;;;;19.17;3.25;;;;;;;-145.71;100.00;60690.53;4736776;30;20490;-93
2021/11/21 01:39:20;;;;;;;21.33;3.28;;;;;;;-145.71;100.00;60690.53;4752346;30;20051;-93
2021/11/21 01:42:45;;;;;;;21.98;4.00;;;;;;;-145.71;100.00;60690.53;4741083;30;20076;-93
2021/11/21 01:46:09;;;;;;;26.15;3.90;;;;;;;-145.71;100.00;60690.53;4741132;30;20102;-93
2021/11/21 01:49:34;;;;;;;27.20;4.35;;;;;;;-145.71;100.00;60690.53;4738902;30;20407;-93
2021/11/21 01:52:59;;;;;;;22.63;4.40;;;;;;;-145.71;100.00;60690.53;4753456;30;20040;-92
2021/11/21 01:56:28;;;;;;;27.10;3.75;;;;;;;-145.71;100.00;60690.53;4739187;30;20028;-93
2021/11/21 01:59:52;;;;;;;26.40;4.55;;;;;;;-145.71;100.00;60690.53;4738595;30;20039;-93
2021/11/21 02:03:18;;;;;;;33.30;4.40;;;;;;;-145.71;100.00;60690.53;4734881;30;20108;-93
2021/11/21 02:06:42;;;;;;;28.48;3.50;;;;;;;-145.71;100.00;60690.53;4735755;30;20082;-92
2021/11/21 02:10:08;;;;;;;20.42;4.20;;;;;;;-145.71;100.00;60690.53;4737160;30;20080;-93
2021/11/21 02:13:32;;;;;;;29.38;3.83;;;;;;;-145.71;100.00;60690.53;4740219;30;20573;-93
2021/11/21 02:16:57;;;;;;;29.52;3.83;;;;;;;-145.71;100.00;60690.53;4737487;30;20056;-93
2021/11/21 02:20:33;;;;;;;27.77;4.50;;;;;;;-145.71;100.00;60690.53;4744466;30;20112;-92
2021/11/21 02:23:59;;;;;;;27.50;4.15;;;;;;;-145.71;100.00;60690.53;4734707;30;20059;-92
2021/11/21 02:27:26;;;;;;;19.85;3.17;;;;;;;-145.71;100.00;60690.53;4735036;30;20032;-93
2021/11/21 02:30:51;;;;;;;30.90;4.18;;;;;;;-145.71;100.00;60690.53;4736018;30;20032;-93
2021/11/21 02:34:16;;;;;;;35.80;5.55;;;;;;;-145.71;100.00;60690.53;4735551;30;20067;-93
2021/11/21 02:37:44;;;;;;;49.78;5.22;;;;;;;-145.71;100.00;60690.53;4735388;30;20041;-93
2021/11/21 02:41:10;;;;;;;26.30;4.35;;;;;;;-145.71;100.00;60690.53;4738970;30;20059;-93
2021/11/21 02:44:36;;;;;;;37.13;4.43;;;;;;;-145.71;100.00;60690.53;4741282;30;20039;-93
2021/11/21 02:48:00;;;;;;;36.30;5.32;;;;;;;-145.71;100.00;60690.53;4734939;30;20037;-92
2021/11/21 02:51:24;;;;;;;27.10;5.15;;;;;;;-145.71;100.00;60690.53;4736894;30;20032;-93
2021/11/21 02:54:58;;;;;;;35.08;5.18;;;;;;;-145.71;100.00;60690.53;4736287;30;20501;-93
2021/11/21 02:58:23;;;;;;;29.83;4.35;;;;;;;-145.71;100.00;60690.53;4737383;30;20033;-93
2021/11/21 03:01:47;;;;;;;34.38;5.78;;;;;;;-145.71;100.00;60690.53;4738805;30;20087;-93
2021/11/21 03:05:12;;;;;;;31.48;5.53;;;;;;;-145.71;100.00;60690.53;4739709;30;20110;-93
2021/11/21 03:08:36;;;;;;;29.90;4.40;;;;;;;-145.71;100.00;60690.53;4755702;30;20039;-93
2021/11/21 03:12:07;;;;;;;31.08;4.03;;;;;;;-145.71;100.00;60690.53;4742587;30;20035;-93
2021/11/21 03:15:32;;;;;;;26.65;5.55;;;;;;;-145.71;100.00;60690.53;4753024;30;20838;-93
2021/11/21 03:18:57;;;;;;;32.50;5.20;;;;;;;-145.71;100.00;60690.53;4738780;30;20039;-92
2021/11/21 03:22:21;;;;;;;32.10;3.92;;;;;;;-145.71;100.00;60690.53;4737726;30;20182;-93
2021/11/21 03:25:45;;;;;;;24.88;5.60;;;;;;;-145.71;100.00;60690.53;4741921;30;20036;-93
2021/11/21 03:29:09;;;;;;;22.50;4.05;;;;;;;-145.71;100.00;60690.53;4741274;30;20036;-94
2021/11/21 03:32:34;;;;;;;32.30;4.45;;;;;;;-145.71;100.00;60690.53;4741119;30;20044;-93
2021/11/21 03:35:58;;;;;;;19.52;4.18;;;;;;;-145.71;100.00;60690.53;4739281;30;20040;-93
2021/11/21 03:39:22;;;;;;;35.88;6.90;;;;;;;-145.71;100.00;60690.53;4759187;29;20510;-93
2021/11/21 03:42:46;;;;;;;31.45;4.38;;;;;;;-145.71;100.00;60690.53;4756259;29;20088;-93
2021/11/21 03:46:11;;;;;;;25.02;4.13;;;;;;;-145.71;100.00;60690.53;4743213;30;20139;-93
2021/11/21 03:49:35;;;;;;;24.90;3.85;;;;;;;-145.71;100.00;60690.53;4738812;30;20390;-93
2021/11/21 03:52:59;;;;;;;23.98;3.95;;;;;;;-145.71;100.00;60690.53;4738394;30;20086;-93
2021/11/21 03:56:23;;;;;;;30.15;3.97;;;;;;;-145.71;100.00;60690.53;4754173;30;20067;-93
2021/11/21 03:59:47;;;;;;;21.30;3.60;;;;;;;-145.71;100.00;60690.53;4741226;30;20452;-93
2021/11/21 04:03:12;;;;;;;38.70;6.00;;;;;;;-145.71;100.00;60690.53;4733171;30;20048;-92
2021/11/21 04:06:36;;;;;;;22.65;4.15;;;;;;;-145.71;100.00;60690.53;4735234;30;20037;-93
2021/11/21 04:10:01;;;;;;;20.58;3.72;;;;;;;-145.71;100.00;60690.53;4733242;30;20064;-92
2021/11/21 04:13:25;;;;;;;21.17;2.92;;;;;;;-145.71;100.00;60690.53;4733866;30;20606;-92
2021/11/21 04:16:49;;;;;;;19.45;3.53;;;;;;;-145.71;100.00;60690.53;4732198;30;20091;-92
2021/11/21 04:20:14;;;;;;;19.50;3.28;;;;;;;-145.71;100.00;60690.53;4731801;30;20123;-92
2021/11/21 04:23:38;;;;;;;20.38;3.90;;;;;;;-145.71;100.00;60690.53;4732308;30;20048;-92
2021/11/21 04:27:03;;;;;;;20.80;3.72;;;;;;;-145.71;100.00;60690.53;4733010;30;20436;-92
2021/11/21 04:30:27;;;;;;;24.88;3.83;;;;;;;-145.71;100.00;60690.53;4733244;30;20494;-92
2021/11/21 04:33:51;;;;;;;17.80;3.17;;;;;;;-145.71;100.00;60690.53;4733130;30;20066;-92
2021/11/21 04:37:16;;;;;;;24.35;3.95;;;;;;;-145.71;100.00;60690.53;4742219;30;20032;-92
2021/11/21 04:40:40;;;;;;;17.00;3.70;;;;;;;-145.71;100.00;60690.53;4731724;30;20498;-92
2021/11/21 04:44:04;;;;;;;19.65;2.80;;;;;;;-145.71;100.00;60690.53;4731601;30;20072;-92
2021/11/21 04:47:28;;;;;;;19.35;3.70;;;;;;;-145.71;100.00;60690.53;4731720;30;20053;-92
2021/11/21 04:50:53;;;;;;;22.38;4.63;;;;;;;-145.71;100.00;60690.53;4731543;30;20495;-92
2021/11/21 04:54:22;;;;;;;23.48;3.90;;;;;;;-145.71;100.00;60690.53;4733129;30;20394;-93
2021/11/21 04:57:46;;;;;;;19.75;3.30;;;;;;;-145.71;100.00;60690.53;4734044;30;20044;-93
2021/11/21 05:01:12;;;;;;;16.08;3.47;;;;;;;-145.71;100.00;60690.53;4735503;30;20105;-93
2021/11/21 05:04:36;;;;;;;18.65;4.10;;;;;;;-145.71;100.00;60690.53;4767935;29;20052;-93
2021/11/21 05:08:01;;;;;;;21.20;2.92;;;;;;;-145.71;100.00;60690.53;4751012;30;20075;-93
2021/11/21 05:11:25;;;;;;;17.13;2.90;;;;;;;-145.71;100.00;60690.53;4751955;30;20043;-92
2021/11/21 05:14:51;;;;;;;21.00;4.18;;;;;;;-145.71;100.00;60690.53;4735048;30;20390;-92
2021/11/21 05:18:15;;;;;;;28.27;4.40;;;;;;;-145.71;100.00;60690.53;4737871;30;20043;-92
2021/11/21 05:21:40;;;;;;;22.17;3.58;;;;;;;-145.71;100.00;60690.53;4754143;30;20118;-92
2021/11/21 05:25:05;;;;;;;24.45;3.63;;;;;;;-145.71;100.00;60690.53;4737890;30;20032;-92
2021/11/21 05:28:30;;;;;;;21.83;3.67;;;;;;;-145.71;100.00;60690.53;4738146;30;20040;-92
2021/11/21 05:31:54;;;;;;;19.52;3.38;;;;;;;-145.71;100.00;60690.53;4746985;30;20036;-94
2021/11/21 05:35:18;;;;;;;22.33;4.03;;;;;;;-145.71;100.00;60690.53;4738461;30;20074;-92
2021/11/21 05:38:42;;;;;;;28.23;4.00;;;;;;;-145.71;100.00;60690.53;4737571;30;20564;-93
2021/11/21 05:42:06;;;;;;;27.42;3.65;;;;;;;-145.71;100.00;60690.53;4737663;30;20173;-92
2021/11/21 05:45:30;;;;;;;28.38;3.53;;;;;;;-145.71;100.00;60690.53;4737616;30;20378;-92
2021/11/21 05:48:54;;;;;;;23.08;3.72;;;;;;;-145.71;100.00;60690.53;4737734;30;20032;-92
2021/11/21 05:52:19;;;;;;;15.05;2.67;;;;;;;-145.71;100.00;60690.53;4753870;30;20036;-92
2021/11/21 05:55:43;;;;;;;21.80;3.72;;;;;;;-145.71;100.00;60690.53;4738151;30;20043;-93
2021/11/21 05:59:07;;;;;;;21.83;2.80;;;;;;;-145.71;100.00;60690.53;4754086;30;20036;-92
2021/11/21 06:02:31;;;;;;;16.73;2.50;;;;;;;-145.71;100.00;60690.53;4734323;30;20560;-92
2021/11/21 06:05:55;;;;;;;18.13;2.60;;;;;;;-145.71;100.00;60690.53;4735730;30;20483;-93
2021/11/21 06:09:19;;;;;;;15.20;4.00;;;;;;;-145.71;100.00;60690.53;4734318;30;20040;-93
2021/11/21 06:12:43;;;;;;;20.77;3.75;;;;;;;-145.71;100.00;60690.53;4735262;30;20056;-92
2021/11/21 06:16:08;;;;;;;22.70;4.75;;;;;;;-145.71;100.00;60690.53;4734516;30;20044;-92
2021/11/21 06:19:32;;;;;;;10.57;2.40;;;;;;;-145.71;100.00;60690.53;4735482;30;20457;-93
2021/11/21 06:22:56;;;;;;;14.45;2.75;;;;;;;-145.71;100.00;60690.53;4734860;30;20079;-92
2021/11/21 06:26:20;;;;;;;8.23;2.28;;;;;;;-145.71;100.00;60690.53;4737643;30;20035;-92
2021/11/21 06:29:44;;;;;;;17.17;2.13;;;;;;;-145.71;100.00;60690.53;4735293;30;20064;-92
2021/11/21 06:33:09;;;;;;;11.80;2.58;;;;;;;-145.71;100.00;60690.53;4733674;30;20045;-92
2021/11/21 06:36:33;;;;;;;12.57;2.60;;;;;;;-145.71;100.00;60690.53;4735301;30;20040;-92
2021/11/21 06:39:57;;;;;;;9.18;1.65;;;;;;;-145.71;100.00;60690.53;4733186;30;20037;-92
2021/11/21 06:43:21;;;;;;;9.07;2.00;;;;;;;-145.71;100.00;60690.53;4734793;30;20486;-93
2021/11/21 06:46:46;;;;;;;10.57;1.45;;;;;;;-145.71;100.00;60690.53;4734502;30;20136;-92
2021/11/21 06:50:12;;;;;;;12.18;1.98;;;;;;;-145.71;100.00;60690.53;4737675;30;20037;-92
2021/11/21 06:53:37;;;;;;;10.68;1.80;;;;;;;-145.71;100.00;60690.53;4745246;30;20123;-93
2021/11/21 06:57:01;;;;;;;11.07;1.67;;;;;;;-145.71;100.00;60690.53;4733510;30;20037;-92
2021/11/21 07:00:25;;;;;;;13.85;2.15;;;;;;;-145.71;100.00;60690.53;4733071;30;20135;-92
2021/11/21 07:03:49;;;;;;;12.73;1.67;;;;;;;-145.71;100.00;60690.53;4733447;30;20570;-92
2021/11/21 07:07:26;;;;;;;13.23;2.53;;;;;;;-145.71;100.00;60690.53;4733384;30;20110;-93
2021/11/21 07:10:51;;;;;;;11.70;2.13;;;;;;;-145.71;100.00;60690.53;4733663;30;20032;-92
2021/11/21 07:14:15;;;;;;;14.95;2.28;;;;;;;-145.71;100.00;60690.53;4733390;30;20141;-92
2021/11/21 07:17:40;;;;;;;7.57;1.92;;;;;;;-145.71;100.00;60690.53;4733424;30;20099;-92
2021/11/21 07:21:05;;;;;;;12.30;1.80;;;;;;;-145.71;100.00;60690.53;4743208;30;20105;-92
2021/11/21 07:24:31;;;;;;;16.42;2.45;;;;;;;-145.71;100.00;60690.53;4738214;30;20116;-92
2021/11/21 07:27:55;;;;;;;13.35;2.00;;;;;;;-145.71;100.00;60690.53;4733081;30;20033;-92
2021/11/21 07:31:21;;;;;;;10.80;3.08;;;;;;;-145.71;100.00;60690.53;4732943;30;20091;-92
2021/11/21 07:34:45;;;;;;;8.27;1.92;;;;;;;-145.71;100.00;60690.53;4740658;30;20043;-92
2021/11/21 07:38:09;;;;;;;7.95;2.72;;;;;;;-145.71;100.00;60690.53;4734087;30;20067;-92
2021/11/21 07:41:33;;;;;;;11.65;2.83;;;;;;;-145.71;100.00;60690.53;4732763;30;20036;-92
2021/11/21 07:44:57;;;;;;;13.30;3.65;;;;;;;-145.71;100.00;60690.53;4732979;30;20028;-92
2021/11/21 07:48:22;;;;;;;13.52;2.38;;;;;;;-145.71;100.00;60690.53;4732292;30;20060;-92
2021/11/21 07:51:47;;;;;;;11.15;2.75;;;;;;;-145.71;100.00;60690.53;4733043;30;20119;-92
2021/11/21 07:55:12;;;;;;;10.30;2.28;;;;;;;-145.71;100.00;60690.53;4733186;30;20555;-92
2021/11/21 07:58:36;;;;;;;12.00;2.25;;;;;;;-145.71;100.00;60690.53;4732431;30;20075;-92
2021/11/21 08:02:00;;;;;;;11.23;2.67;;;;;;;-145.71;100.00;60690.53;4732374;30;20151;-91
2021/11/21 08:05:24;;;;;;;22.02;3.22;;;;;;;-145.71;100.00;60690.53;4733087;30;20119;-91
2021/11/21 08:08:48;;;;;;;11.55;2.25;;;;;;;-145.71;100.00;60690.53;4733045;30;20490;-92
2021/11/21 08:12:12;;;;;;;15.88;2.35;;;;;;;-145.71;100.00;60690.53;4734526;30;20072;-92
2021/11/21 08:15:37;;;;;;;16.42;2.90;;;;;;;-145.71;100.00;60690.53;4735859;30;20375;-92
2021/11/21 08:19:01;;;;;;;10.60;2.20;;;;;;;-145.71;100.00;60690.53;4731631;30;20041;-92
2021/11/21 08:22:25;;;;;;;13.55;2.83;;;;;;;-145.71;100.00;60690.53;4732064;30;20044;-92
2021/11/21 08:25:50;;;;;;;10.57;2.28;;;;;;;-145.71;100.00;60690.53;4731358;30;20485;-92
2021/11/21 08:29:13;;;;;;;14.88;3.45;;;;;;;-145.71;100.00;60690.53;4732189;30;20390;-92
2021/11/21 08:32:38;;;;;;;17.25;2.20;;;;;;;-145.71;100.00;60690.53;4733137;30;20083;-91
2021/11/21 08:36:03;;;;;;;10.40;2.50;;;;;;;-145.71;100.00;60690.53;4732567;30;20040;-92
2021/11/21 08:39:27;;;;;;;17.10;2.10;;;;;;;-145.71;100.00;60690.53;4732084;30;20032;-91
2021/11/21 08:42:52;;;;;;;19.83;2.92;;;;;;;-145.71;100.00;60690.53;4731428;30;20044;-92
2021/11/21 08:46:16;;;;;;;15.32;3.25;;;;;;;-145.71;100.00;60690.53;4732414;30;20033;-92
2021/11/21 08:49:40;;;;;;;14.68;3.20;;;;;;;-145.71;100.00;60690.53;4732432;30;20487;-92
2021/11/21 08:53:04;;;;;;;14.45;2.78;;;;;;;-145.71;100.00;60690.53;4734271;30;20553;-92
2021/11/21 08:56:29;;;;;;;16.27;2.83;;;;;;;-145.71;100.00;60690.53;4734958;30;20053;-91
2021/11/21 08:59:52;;;;;;;15.60;2.67;;;;;;;-145.71;100.00;60690.53;4736017;30;20418;-91
2021/11/21 09:03:16;;;;;;;20.42;3.15;;;;;;;-145.71;100.00;60690.53;4734568;30;20060;-92
2021/11/21 09:06:42;;;;;;;14.50;3.10;;;;;;;-145.71;100.00;60690.53;4738273;30;20091;-92
2021/11/21 09:10:08;;;;;;;16.10;2.15;;;;;;;-145.71;100.00;60690.53;4740783;30;20489;-92
2021/11/21 09:13:32;;;;;;;16.00;2.92;;;;;;;-145.71;100.00;60690.53;4736424;30;20829;-92
2021/11/21 09:16:57;;;;;;;16.23;3.65;;;;;;;-145.71;100.00;60690.53;4735496;30;20037;-92
2021/11/21 09:20:26;;;;;;;20.35;2.95;;;;;;;-145.71;100.00;60690.53;4734694;30;20036;-92
2021/11/21 09:23:50;;;;;;;18.02;2.95;;;;;;;-145.71;100.00;60690.53;4734705;30;20044;-92
2021/11/21 09:27:14;;;;;;;15.80;2.45;;;;;;;-145.71;100.00;60690.53;4736273;30;20036;-92
2021/11/21 09:30:42;;;;;;;21.98;2.60;;;;;;;-145.71;100.00;60690.53;4734947;30;20053;-92
2021/11/21 09:34:07;;;;;;;9.65;3.10;;;;;;;-145.71;100.00;60690.53;4737324;30;20063;-92
2021/11/21 09:37:32;;;;;;;10.10;1.92;;;;;;;-145.71;100.00;60690.53;4737990;30;20047;-92
2021/11/21 09:40:56;;;;;;;15.75;4.13;;;;;;;-145.71;100.00;60690.53;4734421;30;20092;-93
2021/11/21 09:44:20;;;;;;;10.70;2.63;;;;;;;-145.71;100.00;60690.53;4745705;30;20028;-93
2021/11/21 09:47:48;;;;;;;10.73;2.15;;;;;;;-145.71;100.00;60690.53;4739957;30;20041;-93
2021/11/21 09:51:12;;;;;;;11.48;2.13;;;;;;;-145.71;100.00;60690.53;4735404;30;20039;-94
2021/11/21 09:54:36;;;;;;;9.68;2.80;;;;;;;-145.71;100.00;60690.53;4736849;30;20044;-93
2021/11/21 09:58:01;;;;;;;7.95;2.03;;;;;;;-145.71;100.00;60690.53;4736355;30;20039;-93
2021/11/21 10:01:31;;;;;;;8.70;2.00;;;;;;;-145.71;100.00;60690.53;4737163;30;20033;-93
2021/11/21 10:04:56;;;;;;;10.57;2.33;;;;;;;-145.71;100.00;60690.53;4754023;30;20044;-93
2021/11/21 10:08:24;;;;;;;8.52;1.90;;;;;;;-145.71;100.00;60690.53;4738944;30;20039;-93
2021/11/21 10:12:04;;;;;;;13.25;2.70;;;;;;;-145.71;100.00;60690.53;4738637;30;20680;-93
2021/11/21 10:15:30;;;;;;;8.00;2.45;;;;;;;-145.71;100.00;60690.53;4738388;30;20376;-93
2021/11/21 10:19:04;;;;;;;10.60;1.90;;;;;;;-145.71;100.00;60690.53;4755388;30;20039;-93
2021/11/21 10:22:48;;;;;;;11.43;2.03;;;;;;;-145.71;100.00;60690.53;4737479;30;20036;-93
2021/11/21 10:26:21;;;;;;;10.02;2.08;;;;;;;-145.71;100.00;60690.53;4737088;30;20046;-93
2021/11/21 10:29:49;;;;;;;9.75;1.80;;;;;;;-145.71;100.00;60690.53;4738843;30;20082;-93
2021/11/21 10:33:21;;;;;;;11.82;2.28;;;;;;;-145.71;100.00;60690.53;4753873;30;20043;-92
2021/11/21 10:36:50;;;;;;;9.90;2.08;;;;;;;-145.71;100.00;60690.53;4737870;30;20127;-93
2021/11/21 10:40:16;;;;;;;12.55;2.25;;;;;;;-145.71;100.00;60690.53;4737688;30;20486;-93
2021/11/21 10:43:54;;;;;;;10.15;2.45;;;;;;;-145.71;100.00;60690.53;4753573;30;20438;-92
2021/11/21 10:47:40;;;;;;;21.48;1.98;;;;;;;-145.71;100.00;60690.53;4736803;30;20064;-93
2021/11/21 10:51:04;;;;;;;8.40;1.80;;;;;;;-145.71;100.00;60690.53;4736225;30;20490;-93
2021/11/21 10:54:32;;;;;;;7.40;2.10;;;;;;;-145.71;100.00;60690.53;4752489;30;20032;-93
2021/11/21 10:58:17;;;;;;;8.50;1.30;;;;;;;-145.71;100.00;60690.53;4736071;30;20064;-92
2021/11/21 11:01:42;;;;;;;7.75;1.95;;;;;;;-145.71;100.00;60690.53;4737646;30;20549;-92
2021/11/21 11:05:08;;;;;;;9.93;2.10;;;;;;;-145.71;100.00;60690.53;4757869;29;20054;-93
2021/11/21 11:08:36;;;;;;;9.75;1.63;;;;;;;-145.71;100.00;60690.53;4760500;30;20029;-94
2021/11/21 11:12:01;;;;;;;10.00;2.03;;;;;;;-145.71;100.00;60690.53;4754550;30;20040;-95
2021/11/21 11:15:25;;;;;;;13.48;2.35;;;;;;;-145.71;100.00;60690.53;4742675;30;20043;-92
2021/11/21 11:18:50;;;;;;;7.05;1.42;;;;;;;-145.71;100.00;60690.53;4735734;30;20040;-92
2021/11/21 11:22:14;;;;;;;9.95;1.60;;;;;;;-145.71;100.00;60690.53;4735768;30;20032;-93
2021/11/21 11:25:42;;;;;;;11.50;2.28;;;;;;;-145.71;100.00;60690.53;4738093;30;20066;-93
2021/11/21 11:29:12;;;;;;;7.45;1.90;;;;;;;-145.71;100.00;60690.53;4739391;30;20036;-92
2021/11/21 11:32:38;;;;;;;8.18;2.33;;;;;;;-145.71;100.00;60690.53;4754104;30;20160;-93
2021/11/21 11:36:18;;;;;;;7.22;1.60;;;;;;;-145.71;100.00;60690.53;4735913;30;20040;-92
2021/11/21 11:39:55;;;;;;;10.38;1.88;;;;;;;-145.71;100.00;60690.53;4738493;30;20082;-93
2021/11/21 11:43:47;;;;;;;10.98;2.00;;;;;;;-145.71;100.00;60690.53;4750016;30;20044;-92
2021/11/21 11:47:43;;;;;;;7.07;1.60;;;;;;;-145.71;100.00;60690.53;4744911;30;20043;-93
2021/11/21 11:51:15;;;;;;;5.60;1.45;;;;;;;-145.71;100.00;60690.53;4736221;30;20040;-94
2021/11/21 11:55:03;;;;;;;9.25;2.17;;;;;;;-145.71;100.00;60690.53;4773372;30;20548;-93
2021/11/21 11:58:43;;;;;;;6.55;1.65;;;;;;;-145.71;100.00;60690.53;4784919;30;20595;-87
2021/11/21 12:02:10;;;;;;;5.88;1.60;;;;;;;-145.71;100.00;60690.53;4785168;30;20853;-94
2021/11/21 12:05:35;;;;;;;10.65;2.30;;;;;;;-145.71;100.00;60690.53;4794760;29;20051;-93
2021/11/21 12:09:18;;;;;;;10.23;1.98;;;;;;;-145.71;100.00;60690.53;4787811;29;20038;-94
2021/11/21 12:12:51;;;;;;;9.38;2.95;;;;;;;-145.71;100.00;60690.53;4789557;30;20035;-94
2021/11/21 12:16:27;;;;;;;13.27;2.00;;;;;;;-145.71;100.00;60690.53;4792684;30;20073;-94
2021/11/21 12:19:56;;;;;;;10.95;1.98;;;;;;;-145.71;100.00;60690.53;4790165;29;20011;-94
2021/11/21 12:23:50;;;;;;;9.20;2.03;;;;;;;-145.71;100.00;60690.53;4792810;30;20039;-94
2021/11/21 12:27:37;;;;;;;8.73;1.73;;;;;;;-145.71;100.00;60690.53;4799335;29;20496;-94
2021/11/21 12:31:27;;;;;;;13.95;3.05;;;;;;;-145.71;100.00;60690.53;4786949;29;20054;-95
2021/11/21 12:34:51;;;;;;;8.50;1.50;;;;;;;-145.71;100.00;60690.53;4794462;29;20042;-94
2021/11/21 12:38:21;;;;;;;6.43;1.92;;;;;;;-145.71;100.00;60690.53;4789240;30;20150;-94
2021/11/21 12:42:00;;;;;;;9.57;2.75;;;;;;;-145.71;100.00;60690.53;4790090;30;20031;-94
2021/11/21 12:45:29;;;;;;;6.28;1.30;;;;;;;-145.71;100.00;60690.53;4791016;29;20035;-94
2021/11/21 12:48:54;;;;;;;4.68;0.90;;;;;;;-145.71;100.00;60690.53;4787202;29;20519;-94
2021/11/21 12:52:19;;;;;;;5.40;1.20;;;;;;;-145.71;100.00;60690.53;4804128;24;20066;-94
2021/11/21 12:55:50;;;;;;;4.38;1.20;;;;;;;-145.71;100.00;60690.53;4772392;30;20146;-94
2021/11/21 12:59:16;;;;;;;4.93;1.30;;;;;;;-145.71;100.00;60690.53;4775723;30;20039;-94
2021/11/21 13:02:41;;;;;;;4.60;1.20;;;;;;;-145.71;100.00;60690.53;4772911;30;20031;-94
2021/11/21 13:06:06;;;;;;;9.32;1.55;;;;;;;-145.71;100.00;60690.53;4773906;30;20478;-94
2021/11/21 13:09:31;;;;;;;5.20;1.52;;;;;;;-145.71;100.00;60690.53;4788721;29;20082;-93
2021/11/21 13:45:01;;;;;;;5.88;1.45;;;;;;;-145.71;100.00;60690.53;5261196;24;20075;-94
2021/11/21 13:48:30;;;;;;;7.78;1.92;;;;;;;-145.71;100.00;60690.53;4782793;29;20130;-94
2021/11/21 13:51:57;;;;;;;9.48;2.20;;;;;;;-145.71;100.00;60690.53;4777260;30;20493;-93
2021/11/21 13:55:28;;;;;;;9.10;3.33;;;;;;;-145.71;100.00;60690.53;4778980;30;20032;-94
2021/11/21 13:58:53;;;;;;;16.90;8.07;;;;;;;-145.71;100.00;60690.53;4781042;29;20541;-94
2021/11/21 14:02:28;;;;;;;5.47;1.80;;;;;;;-145.71;100.00;60690.53;4780023;30;20031;-94
2021/11/21 14:06:04;;;;;;;6.45;1.77;;;;;;;-145.71;100.00;60690.53;4778154;30;20035;-94
2021/11/21 14:09:55;;;;;;;4.10;1.58;;;;;;;-145.71;100.00;60690.53;4783352;29;20048;-93
2021/11/21 14:13:23;;;;;;;4.45;1.73;;;;;;;-145.71;100.00;60690.53;4777976;30;20028;-93
2021/11/21 14:16:49;;;;;;;4.78;3.15;;;;;;;-145.71;100.00;60690.53;4796726;30;20046;-94
2021/11/21 14:20:41;;;;;;;3.42;1.75;;;;;;;-145.71;100.00;60690.53;4778264;30;20827;-93
2021/11/21 14:24:08;;;;;;;3.78;1.88;;;;;;;-145.71;100.00;60690.53;4778212;30;20035;-93
2021/11/21 14:27:33;;;;;;;6.95;2.20;;;;;;;-145.71;100.00;60690.53;4780126;30;20769;-93
2021/11/21 14:31:06;;;;;;;4.53;2.20;;;;;;;-145.71;100.00;60690.53;4780783;30;20042;-94
2021/11/21 14:34:32;;;;;;;7.88;1.80;;;;;;;-145.71;100.00;60690.53;4777205;30;20039;-94
2021/11/21 14:38:17;;;;;;;4.97;1.95;;;;;;;-145.71;100.00;60690.53;4794040;30;20078;-94
2021/11/21 14:41:58;;;;;;;3.40;1.50;;;;;;;-145.71;100.00;60690.53;4776708;30;20078;-93
2021/11/21 14:45:22;;;;;;;4.38;2.60;;;;;;;-145.71;100.00;60690.53;4775940;30;20048;-94
2021/11/21 14:48:51;;;;;;;5.78;2.20;;;;;;;-145.71;100.00;60690.53;4776728;30;20039;-93
2021/11/21 14:52:21;;;;;;;4.95;1.55;;;;;;;-145.71;100.00;60690.53;4782170;29;20032;-94
2021/11/21 14:55:55;;;;;;;3.85;2.30;;;;;;;-145.71;100.00;60690.53;4776015;30;20480;-93
2021/11/21 14:59:19;;;;;;;1.80;1.30;;;;;;;-145.71;100.00;60690.53;4775991;30;20055;-93
2021/11/21 15:02:43;;;;;;;2.25;1.60;;;;;;;-145.71;100.00;60690.53;4776130;30;20052;-93
2021/11/21 15:06:07;;;;;;;1.92;1.35;;;;;;;-145.71;100.00;60690.53;4776337;30;20032;-93
2021/11/21 15:09:32;;;;;;;3.63;2.00;;;;;;;-145.71;100.00;60690.53;4774535;30;20067;-93
2021/11/21 15:12:57;;;;;;;4.57;1.85;;;;;;;-145.71;100.00;60690.53;4774033;30;20036;-93
2021/11/21 15:16:22;;;;;;;2.25;1.15;;;;;;;-145.71;100.00;60690.53;4781979;30;20051;-94
2021/11/21 15:19:47;;;;;;;4.78;1.60;;;;;;;-145.71;100.00;60690.53;4776786;30;20035;-94
2021/11/21 15:23:11;;;;;;;1.75;1.17;;;;;;;-145.71;100.00;60690.53;4776274;30;20035;-93
2021/11/21 15:26:35;;;;;;;2.95;1.73;;;;;;;-145.71;100.00;60690.53;4775416;30;20127;-94
2021/11/21 15:29:59;;;;;;;5.60;2.67;;;;;;;-145.71;100.00;60690.53;4775257;30;20102;-93
2021/11/21 15:33:23;;;;;;;5.03;3.95;;;;;;;-145.71;100.00;60690.53;4773836;30;20036;-93
2021/11/21 15:36:48;;;;;;;2.80;1.70;;;;;;;-145.71;100.00;60690.53;4773810;30;20100;-94
2021/11/21 15:40:12;;;;;;;7.78;4.80;;;;;;;-145.71;100.00;60690.53;4777085;30;20447;-94
2021/11/21 15:43:37;;;;;;;3.00;2.17;;;;;;;-145.71;100.00;60690.53;4780224;29;20103;-93
2021/11/21 15:47:06;;;;;;;2.03;1.05;;;;;;;-145.71;100.00;60690.53;4778283;30;20051;-93
2021/11/21 15:50:31;;;;;;;0.95;0.70;;;;;;;-145.71;100.00;60690.53;4778822;30;20031;-94
2021/11/21 15:53:56;;;;;;;2.70;1.20;;;;;;;-145.71;100.00;60690.53;4776216;29;20096;-93
2021/11/21 17:39:50;;;;;;;2.85;1.15;;;;;;;-145.71;100.00;60690.53;5197782;24;20203;-85
2021/11/21 17:43:14;;;;;;;2.78;1.58;;;;;;;-145.71;100.00;60690.53;4767232;30;20052;-85
2021/11/21 18:01:21;;;;;;;2.40;1.20;;;;;;;-145.71;100.00;60690.53;5861630;24;20081;-93